Time;durP1;ratioP1;P1;durP2;ratioP2;P2;SDS_P1;SDS_P2;PMS_P1;PMS_P2;Temp;Humidity;BMP_temperature;BMP_pressure;BME280_temperature;BME280_humidity;BME280_pressure;Samples;Min_cycle;Max_cycle;Signal;HPM_P1;HPM_P2
2021/01/13 00:01:40;;;;;;;58.07;31.37;;;0.60;93.10;;;;;;5029991;28;20226;-82
2021/01/13 00:04:10;;;;;;;58.10;33.23;;;0.60;93.10;;;;;;5036005;28;20560;-82
2021/01/13 00:06:38;;;;;;;59.00;32.47;;;0.60;93.10;;;;;;5036098;28;20212;-79
2021/01/13 00:09:06;;;;;;;59.20;33.10;;;0.70;93.10;;;;;;5034494;28;20723;-82
2021/01/13 00:11:34;;;;;;;56.37;32.00;;;0.60;93.10;;;;;;5035113;28;20542;-84
2021/01/13 00:14:02;;;;;;;54.07;30.87;;;0.60;93.10;;;;;;5039889;28;20265;-80
2021/01/13 00:16:29;;;;;;;63.07;32.90;;;0.60;93.20;;;;;;5046488;28;20203;-82
2021/01/13 00:18:57;;;;;;;58.73;33.53;;;0.60;93.20;;;;;;5047542;28;20242;-80
2021/01/13 00:21:24;;;;;;;57.87;31.70;;;0.50;93.20;;;;;;5055642;28;20251;-80
2021/01/13 00:23:52;;;;;;;58.03;32.90;;;0.50;93.20;;;;;;5059097;28;20818;-81
2021/01/13 00:26:21;;;;;;;54.97;32.40;;;0.60;93.20;;;;;;5060089;28;20512;-81
2021/01/13 00:28:50;;;;;;;58.27;32.17;;;0.60;93.20;;;;;;5051504;28;20311;-81
2021/01/13 00:31:18;;;;;;;62.87;33.57;;;0.60;93.20;;;;;;5056841;28;20209;-81
2021/01/13 00:33:46;;;;;;;58.87;33.93;;;0.60;93.30;;;;;;5055882;28;20260;-83
2021/01/13 00:36:20;;;;;;;59.70;32.40;;;0.60;93.30;;;;;;5058812;28;20206;-80
2021/01/13 00:38:48;;;;;;;64.80;35.70;;;0.60;93.30;;;;;;5057168;28;20198;-83
2021/01/13 00:41:16;;;;;;;65.00;34.27;;;0.60;93.30;;;;;;5056247;28;20256;-82
2021/01/13 00:43:44;;;;;;;59.90;32.27;;;0.50;93.30;;;;;;5060652;28;20170;-82
2021/01/13 00:46:13;;;;;;;61.07;34.37;;;0.60;93.30;;;;;;5057685;28;20182;-82
2021/01/13 00:48:41;;;;;;;64.77;33.90;;;0.60;93.30;;;;;;5056864;28;20235;-82
2021/01/13 00:51:08;;;;;;;60.53;33.43;;;0.60;93.30;;;;;;5057716;28;20210;-81
2021/01/13 00:53:36;;;;;;;59.47;33.10;;;0.70;93.30;;;;;;5057169;28;20186;-83
2021/01/13 00:56:04;;;;;;;61.57;32.73;;;0.60;93.30;;;;;;5054960;28;20224;-80
2021/01/13 00:58:32;;;;;;;61.57;33.43;;;0.70;93.30;;;;;;5057180;28;20212;-80
2021/01/13 01:01:00;;;;;;;58.30;32.90;;;0.60;93.30;;;;;;5054615;28;20385;-80
2021/01/13 01:03:29;;;;;;;60.83;33.90;;;0.60;93.30;;;;;;5059792;28;20191;-80
2021/01/13 01:05:58;;;;;;;56.70;32.03;;;0.70;93.30;;;;;;5059851;28;20178;-82
2021/01/13 01:08:26;;;;;;;60.47;32.47;;;0.70;93.40;;;;;;5056603;28;20232;-81
2021/01/13 01:10:57;;;;;;;57.47;33.80;;;0.70;93.40;;;;;;5056806;28;20808;-81
2021/01/13 01:13:24;;;;;;;64.13;33.67;;;0.70;93.40;;;;;;5046134;28;20250;-80
2021/01/13 01:15:52;;;;;;;58.90;33.33;;;0.70;93.40;;;;;;5051000;28;20216;-81
2021/01/13 01:18:20;;;;;;;60.63;33.43;;;0.70;93.40;;;;;;5045386;28;20198;-81
2021/01/13 01:20:48;;;;;;;56.83;32.63;;;0.70;93.40;;;;;;5039562;28;20302;-81
2021/01/13 01:23:16;;;;;;;57.37;32.63;;;0.80;93.40;;;;;;5041338;28;20206;-80
2021/01/13 01:25:45;;;;;;;59.57;32.97;;;0.90;93.50;;;;;;5026427;28;20197;-83
2021/01/13 01:28:13;;;;;;;56.50;31.93;;;0.90;93.50;;;;;;5048631;28;20241;-81
2021/01/13 01:30:40;;;;;;;56.10;32.40;;;0.90;93.50;;;;;;5044779;28;20433;-83
2021/01/13 01:33:08;;;;;;;56.80;31.33;;;0.90;93.50;;;;;;5038950;28;20210;-82
2021/01/13 01:35:35;;;;;;;57.23;32.67;;;0.90;93.50;;;;;;5038966;28;20194;-80
2021/01/13 01:38:04;;;;;;;55.13;31.43;;;1.00;93.50;;;;;;5055182;28;20216;-83
2021/01/13 01:40:31;;;;;;;55.13;31.87;;;1.00;93.50;;;;;;5054083;28;20210;-81
2021/01/13 01:42:59;;;;;;;55.63;29.80;;;1.10;93.50;;;;;;5052629;28;20181;-81
2021/01/13 01:45:28;;;;;;;53.77;30.97;;;1.10;93.50;;;;;;5055829;28;20198;-80
2021/01/13 01:48:15;;;;;;;53.83;30.77;;;1.10;93.50;;;;;;5054922;28;20853;-81
2021/01/13 01:50:45;;;;;;;56.87;30.30;;;1.10;93.50;;;;;;5061957;28;20191;-82
2021/01/13 01:53:21;;;;;;;56.53;30.20;;;1.10;93.50;;;;;;5062728;28;20205;-81
2021/01/13 01:56:01;;;;;;;54.33;30.23;;;1.10;93.50;;;;;;5058910;28;20182;-83
2021/01/13 01:58:31;;;;;;;52.77;29.93;;;1.00;93.40;;;;;;5062215;28;20205;-80
2021/01/13 02:01:01;;;;;;;53.03;30.33;;;1.10;93.50;;;;;;5050025;28;20549;-79
2021/01/13 02:03:33;;;;;;;53.57;29.30;;;1.10;93.50;;;;;;5063141;28;20205;-79
2021/01/13 02:06:07;;;;;;;49.93;27.53;;;1.00;93.50;;;;;;5061262;28;20193;-81
2021/01/13 02:08:39;;;;;;;54.33;29.90;;;1.10;93.50;;;;;;5062972;28;20237;-81
2021/01/13 02:11:10;;;;;;;56.77;30.17;;;1.00;93.50;;;;;;5062105;28;20198;-80
2021/01/13 02:13:38;;;;;;;50.97;28.87;;;1.00;93.50;;;;;;5058896;28;20798;-81
2021/01/13 02:16:06;;;;;;;51.83;28.97;;;1.00;93.50;;;;;;5052475;28;20212;-79
2021/01/13 02:18:36;;;;;;;49.40;27.47;;;1.00;93.50;;;;;;5056413;28;20224;-81
2021/01/13 02:21:05;;;;;;;51.60;28.20;;;1.00;93.50;;;;;;5063334;28;20395;-80
2021/01/13 02:23:34;;;;;;;54.13;27.93;;;1.00;93.50;;;;;;5065254;28;20183;-79
2021/01/13 02:26:44;;;;;;;51.23;28.50;;;1.00;93.50;;;;;;5060389;28;20194;-79
2021/01/13 02:29:39;;;;;;;51.00;28.80;;;0.90;93.50;;;;;;5058481;28;20328;-80
2021/01/13 02:32:17;;;;;;;52.87;27.87;;;1.00;93.50;;;;;;5057457;28;20214;-80
2021/01/13 02:34:56;;;;;;;52.13;28.87;;;0.90;93.50;;;;;;5060516;28;20202;-80
2021/01/13 02:37:43;;;;;;;49.40;27.73;;;0.90;93.50;;;;;;5053233;28;20301;-78
2021/01/13 02:40:15;;;;;;;49.57;27.10;;;1.00;93.60;;;;;;5060458;28;20398;-80
2021/01/13 02:42:58;;;;;;;47.00;26.40;;;1.00;93.60;;;;;;5047748;28;20198;-80
2021/01/13 02:45:34;;;;;;;48.10;26.50;;;1.00;93.60;;;;;;5053538;28;20217;-79
2021/01/13 02:48:12;;;;;;;47.07;26.00;;;0.90;93.50;;;;;;5048070;28;20222;-79
2021/01/13 02:50:42;;;;;;;51.00;25.80;;;0.90;93.60;;;;;;5048858;28;20188;-79
2021/01/13 02:53:49;;;;;;;46.30;24.93;;;1.00;93.60;;;;;;5041059;28;20321;-79
2021/01/13 02:56:41;;;;;;;46.13;23.73;;;0.90;93.60;;;;;;5047475;28;20696;-79
2021/01/13 02:59:12;;;;;;;43.30;23.93;;;1.00;93.60;;;;;;5049472;28;20229;-79
2021/01/13 03:01:47;;;;;;;42.20;23.27;;;1.00;93.60;;;;;;5049491;28;20205;-79
2021/01/13 03:04:14;;;;;;;37.70;21.63;;;1.00;93.60;;;;;;5038062;28;20792;-81
2021/01/13 03:06:45;;;;;;;37.60;21.73;;;1.10;93.60;;;;;;5038971;28;20201;-78
2021/01/13 03:09:14;;;;;;;38.20;21.40;;;1.10;93.60;;;;;;5033287;28;20240;-81
2021/01/13 03:11:42;;;;;;;33.63;19.27;;;1.10;93.60;;;;;;5041338;28;20205;-79
2021/01/13 03:14:17;;;;;;;32.27;19.37;;;1.10;93.60;;;;;;5037782;28;20795;-80
2021/01/13 03:16:56;;;;;;;28.60;16.37;;;1.10;93.60;;;;;;5033119;28;20231;-79
2021/01/13 03:19:29;;;;;;;26.23;16.57;;;1.10;93.50;;;;;;5031408;28;20197;-80
2021/01/13 03:22:00;;;;;;;18.77;10.60;;;1.10;93.50;;;;;;5038887;28;20201;-82
2021/01/13 03:24:44;;;;;;;25.27;15.47;;;1.20;93.50;;;;;;5034928;28;20268;-81
2021/01/13 03:27:14;;;;;;;26.00;15.57;;;1.10;93.40;;;;;;5031931;28;20604;-81
2021/01/13 03:29:46;;;;;;;27.30;16.60;;;1.10;93.40;;;;;;5036423;28;20710;-81
2021/01/13 03:32:19;;;;;;;26.33;17.10;;;1.10;93.40;;;;;;5032198;28;20202;-81
2021/01/13 03:35:05;;;;;;;28.57;16.90;;;1.10;93.40;;;;;;5044804;28;20197;-80
2021/01/13 03:37:52;;;;;;;29.93;17.70;;;1.10;93.50;;;;;;5034258;28;20571;-80
2021/01/13 03:40:21;;;;;;;26.33;17.00;;;1.10;93.40;;;;;;5036217;28;20228;-79
2021/01/13 03:42:52;;;;;;;26.10;16.93;;;1.10;93.40;;;;;;5031282;28;20835;-81
2021/01/13 03:45:37;;;;;;;24.07;15.87;;;1.10;93.40;;;;;;5030957;28;20198;-80
2021/01/13 03:48:10;;;;;;;23.17;15.57;;;1.10;93.40;;;;;;5029498;28;20233;-81
2021/01/13 03:50:41;;;;;;;24.87;15.83;;;1.00;93.40;;;;;;5034636;28;21143;-81
2021/01/13 03:53:10;;;;;;;11.90;7.87;;;1.00;93.30;;;;;;5033085;28;20204;-80
2021/01/13 03:55:40;;;;;;;18.77;13.33;;;1.00;93.20;;;;;;5032848;28;20226;-81
2021/01/13 03:58:20;;;;;;;19.30;14.00;;;1.00;93.10;;;;;;5052494;28;20221;-83
2021/01/13 04:01:00;;;;;;;20.93;13.90;;;0.90;93.00;;;;;;5050803;28;20217;-81
2021/01/13 04:03:31;;;;;;;17.70;12.27;;;0.90;93.00;;;;;;5044407;28;20193;-80
2021/01/13 04:06:07;;;;;;;15.60;12.20;;;0.80;92.80;;;;;;5033939;28;20191;-82
2021/01/13 04:08:40;;;;;;;22.63;13.93;;;0.80;92.80;;;;;;5029996;28;20585;-80
2021/01/13 04:11:10;;;;;;;15.17;11.70;;;0.80;92.80;;;;;;5028531;28;20204;-80
2021/01/13 04:13:43;;;;;;;17.67;12.90;;;0.70;92.70;;;;;;5034586;28;20202;-79
2021/01/13 04:16:12;;;;;;;15.47;11.03;;;0.80;92.70;;;;;;5053080;28;20744;-80
2021/01/13 04:18:42;;;;;;;14.83;10.57;;;0.80;92.50;;;;;;5039715;28;20203;-80
2021/01/13 04:21:13;;;;;;;12.57;10.03;;;0.70;92.40;;;;;;5033869;28;20210;-79
2021/01/13 04:23:41;;;;;;;14.27;9.70;;;0.70;92.40;;;;;;5036254;28;20259;-81
2021/01/13 04:26:11;;;;;;;15.70;8.97;;;0.70;92.20;;;;;;5037164;28;20202;-81
2021/01/13 04:28:39;;;;;;;13.93;10.23;;;0.70;92.20;;;;;;5039423;28;20445;-81
2021/01/13 04:31:07;;;;;;;12.33;9.27;;;0.70;92.20;;;;;;5037313;28;20345;-81
2021/01/13 04:33:35;;;;;;;18.60;11.10;;;0.70;92.00;;;;;;5040585;28;20287;-80
2021/01/13 04:36:05;;;;;;;15.13;10.20;;;0.70;92.00;;;;;;5031676;28;20676;-81
2021/01/13 04:38:35;;;;;;;11.93;8.50;;;0.60;91.90;;;;;;5034804;28;20413;-80
2021/01/13 04:41:08;;;;;;;12.77;9.30;;;0.60;92.00;;;;;;5039916;28;20208;-81
2021/01/13 04:43:51;;;;;;;15.87;10.07;;;0.60;92.00;;;;;;5041373;28;20410;-79
2021/01/13 04:46:33;;;;;;;13.57;9.27;;;0.50;92.00;;;;;;5035601;28;20200;-82
2021/01/13 04:49:10;;;;;;;12.67;9.27;;;0.50;92.00;;;;;;5032802;28;20307;-81
2021/01/13 04:51:40;;;;;;;11.37;8.50;;;0.50;91.90;;;;;;5031795;28;20247;-81
2021/01/13 04:54:10;;;;;;;14.37;9.03;;;0.50;91.70;;;;;;5030554;28;20206;-82
2021/01/13 04:57:11;;;;;;;11.00;8.60;;;0.50;91.80;;;;;;5038943;28;20213;-81
2021/01/13 05:00:04;;;;;;;9.23;5.83;;;0.50;91.40;;;;;;5036204;28;20268;-80
2021/01/13 05:03:03;;;;;;;10.20;7.23;;;0.40;91.10;;;;;;5032718;28;20768;-80
2021/01/13 05:05:44;;;;;;;10.47;6.50;;;0.40;91.20;;;;;;5020342;28;20770;-79
2021/01/13 05:08:28;;;;;;;7.03;5.30;;;0.40;90.90;;;;;;5031539;28;20342;-80
2021/01/13 05:11:10;;;;;;;10.10;6.60;;;0.40;90.90;;;;;;5029660;28;20199;-81
2021/01/13 05:13:41;;;;;;;10.83;6.10;;;0.30;90.90;;;;;;5020660;28;20698;-81
2021/01/13 05:16:11;;;;;;;10.03;6.03;;;0.20;90.80;;;;;;5034969;28;20486;-81
2021/01/13 05:18:56;;;;;;;8.80;6.00;;;0.20;90.80;;;;;;5033536;28;20297;-81
2021/01/13 05:21:27;;;;;;;8.17;6.17;;;0.30;90.70;;;;;;5030520;28;20539;-80
2021/01/13 05:23:57;;;;;;;10.63;6.43;;;0.20;90.60;;;;;;5043364;28;20414;-80
2021/01/13 05:26:27;;;;;;;7.23;5.03;;;0.20;90.50;;;;;;5058920;28;20184;-81
2021/01/13 05:29:25;;;;;;;7.77;5.47;;;0.20;90.60;;;;;;5055149;28;20207;-80
2021/01/13 05:31:55;;;;;;;7.37;4.97;;;0.20;90.50;;;;;;5041744;28;20207;-80
2021/01/13 05:34:22;;;;;;;10.47;5.70;;;0.20;91.10;;;;;;5024507;28;20211;-79
2021/01/13 05:37:16;;;;;;;11.63;6.70;;;0.20;91.10;;;;;;5031653;28;20208;-80
2021/01/13 05:39:47;;;;;;;8.80;5.70;;;0.20;90.90;;;;;;5025638;28;20258;-80
2021/01/13 05:42:18;;;;;;;7.97;5.20;;;0.30;90.70;;;;;;5033001;28;20216;-83
2021/01/13 05:44:47;;;;;;;5.47;4.77;;;0.20;90.30;;;;;;5033634;28;20212;-82
2021/01/13 05:47:51;;;;;;;10.27;5.50;;;0.20;90.20;;;;;;5030157;28;20650;-81
2021/01/13 05:50:21;;;;;;;7.37;5.50;;;0.20;90.00;;;;;;5027248;28;20215;-81
2021/01/13 05:52:50;;;;;;;9.17;5.93;;;0.10;90.00;;;;;;5032866;28;20206;-81
2021/01/13 05:55:24;;;;;;;8.30;5.43;;;0.10;90.20;;;;;;5031335;28;21212;-81
2021/01/13 05:57:57;;;;;;;7.00;5.83;;;0.10;90.10;;;;;;5028114;28;20582;-81
2021/01/13 06:00:27;;;;;;;10.00;6.67;;;0.10;90.10;;;;;;5029285;28;20194;-82
2021/01/13 06:02:59;;;;;;;8.57;5.60;;;0.10;90.20;;;;;;5025642;28;20249;-81
2021/01/13 06:05:29;;;;;;;11.27;5.93;;;0.10;90.40;;;;;;5023186;28;20271;-80
2021/01/13 06:07:58;;;;;;;10.00;6.33;;;0.10;90.30;;;;;;5025054;28;20653;-81
2021/01/13 06:10:29;;;;;;;9.50;6.30;;;0.00;90.30;;;;;;5030546;28;20749;-81
2021/01/13 06:12:59;;;;;;;6.17;5.30;;;0.10;90.30;;;;;;5035671;28;20218;-82
2021/01/13 06:15:28;;;;;;;7.20;3.77;;;0.10;90.10;;;;;;5029214;28;20191;-81
2021/01/13 06:17:57;;;;;;;10.37;5.80;;;0.10;90.20;;;;;;5036031;28;20201;-83
2021/01/13 06:20:27;;;;;;;8.87;5.70;;;0.10;90.20;;;;;;5042958;28;20233;-81
2021/01/13 06:22:56;;;;;;;7.20;5.60;;;0.10;90.30;;;;;;5032841;28;20272;-82
2021/01/13 06:25:27;;;;;;;8.60;6.10;;;0.10;90.40;;;;;;5024926;28;20419;-81
2021/01/13 06:28:24;;;;;;;11.87;5.50;;;0.10;90.60;;;;;;5021344;28;20647;-80
2021/01/13 06:31:02;;;;;;;9.43;6.47;;;0.10;90.70;;;;;;5027287;28;20288;-82
2021/01/13 06:33:35;;;;;;;8.87;6.47;;;0.10;90.80;;;;;;5022025;28;20217;-79
2021/01/13 06:36:29;;;;;;;9.50;7.00;;;0.10;90.90;;;;;;5039660;28;21171;-81
2021/01/13 06:38:58;;;;;;;10.17;6.73;;;0.00;90.90;;;;;;5041498;28;21959;-81
2021/01/13 06:41:28;;;;;;;10.93;7.20;;;0.10;90.80;;;;;;5033563;28;20204;-79
2021/01/13 06:43:57;;;;;;;10.33;7.87;;;0.00;91.00;;;;;;5033598;28;20732;-79
2021/01/13 06:46:25;;;;;;;9.57;6.87;;;0.00;90.70;;;;;;5027028;28;20763;-81
2021/01/13 06:48:54;;;;;;;11.43;7.00;;;0.00;90.60;;;;;;5037080;28;20273;-80
2021/01/13 06:51:24;;;;;;;7.27;5.60;;;0.00;90.40;;;;;;5054572;28;20204;-82
2021/01/13 06:53:56;;;;;;;7.40;5.43;;;0.00;90.10;;;;;;5060280;28;20188;-81
2021/01/13 06:56:24;;;;;;;9.27;6.50;;;0.00;90.40;;;;;;5047609;28;20186;-81
2021/01/13 06:59:00;;;;;;;6.67;5.77;;;0.00;90.30;;;;;;5037674;28;20256;-79
2021/01/13 07:01:29;;;;;;;9.37;5.93;;;0.00;90.20;;;;;;5027117;28;20273;-81
2021/01/13 07:04:01;;;;;;;9.47;6.33;;;0.10;90.00;;;;;;5025339;28;20884;-81
2021/01/13 07:06:29;;;;;;;9.87;6.77;;;0.10;89.80;;;;;;5030730;28;20620;-81
2021/01/13 07:08:58;;;;;;;9.27;6.30;;;0.10;89.90;;;;;;5026588;28;20517;-81
2021/01/13 07:11:28;;;;;;;7.77;5.60;;;0.10;90.10;;;;;;5031834;28;20925;-81
2021/01/13 07:14:01;;;;;;;8.13;6.03;;;0.10;89.40;;;;;;5041920;28;20315;-81
2021/01/13 07:16:30;;;;;;;6.80;4.90;;;0.10;89.20;;;;;;5007825;28;20207;-82
2021/01/13 07:19:02;;;;;;;10.43;5.73;;;0.30;89.50;;;;;;5026290;28;20398;-81
2021/01/13 07:21:37;;;;;;;10.00;6.43;;;0.00;89.20;;;;;;5023899;28;20649;-81
2021/01/13 07:24:13;;;;;;;11.10;6.30;;;-0.10;88.90;;;;;;5028219;28;20210;-79
2021/01/13 07:26:42;;;;;;;9.87;6.17;;;0.10;89.50;;;;;;5037052;28;20638;-81
2021/01/13 07:29:12;;;;;;;12.20;6.27;;;0.10;90.00;;;;;;5023497;28;20244;-81
2021/01/13 07:31:40;;;;;;;10.00;6.87;;;0.20;90.10;;;;;;5016979;28;20199;-81
2021/01/13 07:34:18;;;;;;;8.03;6.40;;;0.20;90.10;;;;;;5029201;28;20918;-81
2021/01/13 07:36:51;;;;;;;8.07;6.77;;;0.20;90.00;;;;;;5022369;28;20641;-80
2021/01/13 07:39:22;;;;;;;9.17;6.97;;;0.20;90.00;;;;;;5033087;28;20199;-80
2021/01/13 07:42:11;;;;;;;10.33;7.77;;;0.20;89.70;;;;;;5040556;28;20517;-81
2021/01/13 07:44:41;;;;;;;11.43;7.30;;;0.30;89.80;;;;;;5043816;28;20459;-82
2021/01/13 07:47:32;;;;;;;9.83;7.43;;;0.10;89.80;;;;;;5047322;28;20192;-82
2021/01/13 07:50:08;;;;;;;9.47;7.13;;;0.20;90.10;;;;;;5047976;28;20237;-81
2021/01/13 07:52:44;;;;;;;9.07;7.37;;;0.20;90.20;;;;;;5043869;28;20192;-80
2021/01/13 07:55:18;;;;;;;9.87;7.30;;;0.20;90.20;;;;;;5037719;28;20210;-81
2021/01/13 07:57:48;;;;;;;9.50;7.77;;;0.30;90.30;;;;;;5030749;28;20296;-80
2021/01/13 08:00:28;;;;;;;9.37;7.63;;;0.30;90.30;;;;;;5042858;28;20205;-82
2021/01/13 08:03:40;;;;;;;11.03;7.67;;;0.30;90.40;;;;;;5046598;28;20198;-82
2021/01/13 08:06:26;;;;;;;14.77;8.13;;;0.30;90.60;;;;;;5053808;28;20438;-80
2021/01/13 08:09:09;;;;;;;12.97;8.30;;;0.30;90.60;;;;;;5022287;28;20395;-79
2021/01/13 08:12:09;;;;;;;10.67;7.77;;;0.40;90.60;;;;;;5015956;28;20208;-82
2021/01/13 08:15:07;;;;;;;11.63;7.97;;;0.40;90.50;;;;;;5020762;28;20427;-81
2021/01/13 08:17:40;;;;;;;11.20;8.57;;;0.40;90.60;;;;;;5013513;28;20232;-81
2021/01/13 08:21:06;;;;;;;11.93;8.37;;;0.50;90.70;;;;;;5053125;28;20418;-79
2021/01/13 08:23:39;;;;;;;14.23;8.87;;;0.50;90.60;;;;;;5010266;28;20237;-83
2021/01/13 08:26:09;;;;;;;12.73;8.20;;;0.50;90.60;;;;;;5008273;28;20336;-82
2021/01/13 08:28:38;;;;;;;11.40;8.53;;;0.50;90.60;;;;;;5015105;28;20581;-81
2021/01/13 08:31:06;;;;;;;11.03;8.50;;;0.50;90.60;;;;;;5025410;28;20299;-81
2021/01/13 08:33:38;;;;;;;14.67;9.63;;;0.50;90.80;;;;;;5023229;28;20364;-78
2021/01/13 08:36:12;;;;;;;12.47;9.07;;;0.50;90.90;;;;;;5021655;28;20233;-79
2021/01/13 08:39:05;;;;;;;15.67;9.53;;;0.50;91.00;;;;;;5030989;28;20474;-79
2021/01/13 08:41:33;;;;;;;13.57;9.40;;;0.60;91.10;;;;;;5047131;28;20454;-81
2021/01/13 08:44:15;;;;;;;15.77;10.27;;;0.70;91.10;;;;;;5026579;28;20206;-80
2021/01/13 08:46:48;;;;;;;17.40;10.63;;;0.70;91.00;;;;;;5026045;28;20214;-81
2021/01/13 08:49:22;;;;;;;18.27;10.77;;;0.70;91.00;;;;;;5031931;28;20286;-79
2021/01/13 08:52:19;;;;;;;15.90;10.93;;;0.70;91.10;;;;;;5017882;28;20295;-81
2021/01/13 08:55:12;;;;;;;17.90;11.93;;;0.70;91.10;;;;;;5019344;28;20527;-81
2021/01/13 08:58:08;;;;;;;26.07;12.33;;;0.70;91.10;;;;;;5022099;28;20198;-81
2021/01/13 09:00:38;;;;;;;18.47;12.17;;;0.70;91.20;;;;;;5014979;28;20225;-82
2021/01/13 09:03:11;;;;;;;21.77;13.50;;;0.70;91.30;;;;;;5013674;28;20548;-81
2021/01/13 09:05:41;;;;;;;22.90;13.27;;;0.70;91.40;;;;;;5020699;28;20236;-81
2021/01/13 09:08:11;;;;;;;25.10;13.50;;;0.70;91.40;;;;;;5023028;28;20227;-80
2021/01/13 09:10:50;;;;;;;27.50;13.57;;;0.70;91.50;;;;;;5017744;28;20357;-80
2021/01/13 09:13:44;;;;;;;22.30;14.57;;;0.70;91.60;;;;;;5029872;28;20381;-80
2021/01/13 09:16:32;;;;;;;27.80;15.27;;;0.60;91.90;;;;;;5012262;28;20225;-80
2021/01/13 09:19:03;;;;;;;27.07;15.20;;;0.80;92.10;;;;;;5026474;28;20213;-81
2021/01/13 09:21:36;;;;;;;27.27;16.00;;;0.90;91.90;;;;;;5022422;28;20220;-80
2021/01/13 09:24:07;;;;;;;30.47;15.90;;;1.00;91.80;;;;;;5024867;28;20526;-79
2021/01/13 09:26:37;;;;;;;29.23;16.50;;;0.90;91.70;;;;;;5032349;28;21772;-81
2021/01/13 09:29:10;;;;;;;25.13;16.60;;;0.90;91.60;;;;;;5026793;28;20422;-79
2021/01/13 09:31:39;;;;;;;28.50;16.53;;;0.80;91.70;;;;;;5035206;28;20411;-81
2021/01/13 09:34:08;;;;;;;27.93;16.87;;;0.80;91.80;;;;;;5035820;28;20198;-82
2021/01/13 09:36:56;;;;;;;29.93;17.77;;;0.80;91.80;;;;;;5034476;28;20244;-80
2021/01/13 09:39:33;;;;;;;31.23;16.97;;;0.90;91.90;;;;;;5024999;28;20427;-80
2021/01/13 09:42:05;;;;;;;31.40;17.87;;;0.80;92.00;;;;;;5037543;28;20217;-81
2021/01/13 09:44:37;;;;;;;30.70;17.43;;;1.00;92.00;;;;;;5046961;28;20269;-81
2021/01/13 09:47:22;;;;;;;28.57;16.97;;;1.00;91.90;;;;;;5049247;28;20439;-82
2021/01/13 09:49:53;;;;;;;27.17;17.00;;;0.80;91.80;;;;;;5050015;28;20749;-82
2021/01/13 09:52:21;;;;;;;27.03;15.57;;;0.90;91.90;;;;;;5044942;28;20247;-80
2021/01/13 09:54:52;;;;;;;26.47;16.17;;;1.00;91.80;;;;;;5039501;28;20266;-80
2021/01/13 09:57:20;;;;;;;25.50;15.27;;;1.00;91.70;;;;;;5041792;28;20635;-80
2021/01/13 10:00:00;;;;;;;23.47;14.87;;;1.10;91.60;;;;;;5030883;28;20201;-81
2021/01/13 10:02:31;;;;;;;26.57;14.77;;;1.10;91.50;;;;;;5037468;28;20422;-79
2021/01/13 10:05:01;;;;;;;22.00;13.73;;;1.20;91.60;;;;;;5039929;28;20298;-79
2021/01/13 10:07:31;;;;;;;22.53;14.47;;;1.30;91.40;;;;;;5029517;28;20199;-81
2021/01/13 10:10:01;;;;;;;20.60;12.60;;;1.40;91.40;;;;;;5036054;28;20566;-79
2021/01/13 10:12:40;;;;;;;18.70;12.40;;;1.40;91.10;;;;;;5032590;28;20206;-78
2021/01/13 10:15:11;;;;;;;16.37;10.80;;;1.40;90.20;;;;;;5038614;28;20457;-77
2021/01/13 10:17:42;;;;;;;20.63;13.00;;;1.30;89.90;;;;;;5034783;28;20618;-78
2021/01/13 10:20:16;;;;;;;21.60;12.27;;;1.30;89.90;;;;;;5039821;28;20209;-80
2021/01/13 10:22:47;;;;;;;16.43;11.57;;;1.30;90.10;;;;;;5038403;28;20422;-76
2021/01/13 10:25:27;;;;;;;19.93;12.80;;;1.20;90.10;;;;;;5039748;28;20440;-78
2021/01/13 10:27:58;;;;;;;42.23;28.63;;;1.20;90.30;;;;;;5021673;28;20201;-78
2021/01/13 10:30:27;;;;;;;25.20;15.67;;;1.20;90.60;;;;;;5020346;28;20221;-80
2021/01/13 10:32:56;;;;;;;20.63;12.10;;;1.20;90.70;;;;;;5029491;28;20679;-80
2021/01/13 10:35:36;;;;;;;19.40;12.53;;;1.20;90.40;;;;;;5025573;28;20217;-79
2021/01/13 10:38:04;;;;;;;18.30;11.83;;;1.10;90.40;;;;;;5025885;28;20544;-79
2021/01/13 10:40:33;;;;;;;20.57;12.37;;;1.10;90.50;;;;;;5017709;28;20583;-79
2021/01/13 10:43:09;;;;;;;20.77;12.80;;;1.10;90.40;;;;;;5023468;28;20206;-81
2021/01/13 10:45:37;;;;;;;21.83;12.97;;;1.10;90.60;;;;;;5020222;28;20213;-79
2021/01/13 10:48:06;;;;;;;17.20;10.40;;;1.10;90.60;;;;;;5018639;28;20198;-78
2021/01/13 10:50:41;;;;;;;12.90;6.73;;;1.20;90.50;;;;;;5016946;28;21384;-78
2021/01/13 10:53:09;;;;;;;18.40;11.17;;;1.20;90.20;;;;;;5014798;28;20651;-78
2021/01/13 10:55:44;;;;;;;19.67;11.10;;;1.30;90.40;;;;;;5016906;28;20500;-80
2021/01/13 10:58:14;;;;;;;15.20;9.27;;;1.40;90.20;;;;;;5022352;28;20647;-78
2021/01/13 11:00:42;;;;;;;15.87;9.80;;;1.40;89.90;;;;;;5019599;28;20216;-80
2021/01/13 11:03:10;;;;;;;16.67;10.17;;;1.40;89.50;;;;;;5027315;28;20479;-79
2021/01/13 11:05:38;;;;;;;17.77;10.80;;;1.50;89.70;;;;;;5012143;28;20232;-80
2021/01/13 11:08:13;;;;;;;15.60;9.77;;;1.50;89.70;;;;;;5020140;28;20225;-80
2021/01/13 11:10:42;;;;;;;14.80;10.27;;;1.60;89.70;;;;;;5004908;28;20669;-80
2021/01/13 11:13:12;;;;;;;16.47;10.27;;;1.50;89.50;;;;;;5022351;28;20203;-77
2021/01/13 11:15:41;;;;;;;13.40;9.30;;;1.50;89.50;;;;;;5041644;28;20198;-80
2021/01/13 11:18:13;;;;;;;14.03;9.20;;;1.50;89.90;;;;;;5040979;28;20220;-78
2021/01/13 11:20:41;;;;;;;14.03;9.17;;;1.40;89.80;;;;;;5033029;28;20562;-79
2021/01/13 11:23:09;;;;;;;15.80;10.07;;;1.30;89.70;;;;;;5028216;28;20245;-78
2021/01/13 11:25:58;;;;;;;18.30;9.70;;;1.20;90.00;;;;;;5023500;28;20368;-77
2021/01/13 11:28:29;;;;;;;16.37;10.10;;;1.20;90.10;;;;;;5017025;28;20307;-79
2021/01/13 11:30:57;;;;;;;17.73;10.37;;;1.10;90.30;;;;;;5011415;28;20236;-77
2021/01/13 11:33:28;;;;;;;16.10;11.00;;;1.10;90.30;;;;;;5020580;28;20277;-79
2021/01/13 11:35:55;;;;;;;17.57;11.07;;;1.00;90.50;;;;;;5013394;28;20955;-78
2021/01/13 11:38:50;;;;;;;19.07;11.20;;;1.10;90.70;;;;;;5017312;28;20205;-78
2021/01/13 11:41:52;;;;;;;22.47;12.27;;;1.20;90.70;;;;;;5017417;28;20731;-81
2021/01/13 11:44:28;;;;;;;21.97;10.77;;;1.30;90.50;;;;;;5010320;28;20205;-80
2021/01/13 11:47:18;;;;;;;18.07;10.73;;;1.20;90.50;;;;;;5013774;28;20644;-79
2021/01/13 11:49:51;;;;;;;18.33;11.40;;;1.30;90.60;;;;;;5015923;28;20217;-78
2021/01/13 11:52:22;;;;;;;21.40;12.13;;;1.40;90.60;;;;;;5012298;28;20733;-79
2021/01/13 11:54:54;;;;;;;18.07;11.27;;;1.20;90.70;;;;;;5014204;28;20205;-80
2021/01/13 11:57:26;;;;;;;17.07;10.83;;;1.30;90.90;;;;;;5021212;28;20252;-77
2021/01/13 11:59:57;;;;;;;21.87;12.17;;;1.40;91.00;;;;;;5018199;28;20651;-78
2021/01/13 12:02:32;;;;;;;19.60;11.17;;;1.30;90.80;;;;;;5019523;28;20229;-80
2021/01/13 12:04:59;;;;;;;17.47;11.50;;;1.40;90.90;;;;;;5020408;28;20753;-77
2021/01/13 12:07:27;;;;;;;19.87;12.70;;;1.40;91.10;;;;;;5024420;28;20695;-77
2021/01/13 12:10:10;;;;;;;20.13;11.73;;;1.40;91.00;;;;;;5016369;28;20218;-79
2021/01/13 12:12:40;;;;;;;21.60;11.97;;;1.40;90.90;;;;;;5021048;28;20209;-80
2021/01/13 12:15:09;;;;;;;18.73;11.50;;;1.40;90.90;;;;;;5015573;28;20210;-77
2021/01/13 12:17:48;;;;;;;17.40;10.93;;;1.40;90.90;;;;;;5027198;28;20452;-77
2021/01/13 12:20:32;;;;;;;19.60;11.83;;;1.50;91.00;;;;;;5007695;28;20213;-81
2021/01/13 12:23:28;;;;;;;23.50;11.57;;;1.40;91.00;;;;;;5015429;28;20202;-80
2021/01/13 12:26:14;;;;;;;21.60;11.33;;;1.60;91.20;;;;;;5017622;28;20219;-79
2021/01/13 12:28:46;;;;;;;19.13;10.77;;;1.60;91.20;;;;;;5021339;28;20206;-79
2021/01/13 12:31:15;;;;;;;19.30;11.40;;;1.70;90.90;;;;;;5015544;28;20248;-79
2021/01/13 12:33:50;;;;;;;18.17;11.30;;;1.70;90.70;;;;;;5021126;28;20255;-78
2021/01/13 12:36:24;;;;;;;20.53;10.90;;;1.80;90.70;;;;;;5017754;28;20442;-80
2021/01/13 12:38:52;;;;;;;16.20;11.07;;;1.90;90.60;;;;;;5024014;28;20636;-79
2021/01/13 12:41:23;;;;;;;16.43;10.80;;;2.00;90.60;;;;;;5037017;28;20271;-80
2021/01/13 12:43:52;;;;;;;21.10;11.63;;;2.00;90.40;;;;;;5039265;28;20198;-77
2021/01/13 12:46:31;;;;;;;21.97;11.63;;;2.00;90.40;;;;;;5033223;28;20209;-77
2021/01/13 12:49:00;;;;;;;17.33;11.33;;;1.90;90.30;;;;;;5030210;28;20209;-83
2021/01/13 12:51:29;;;;;;;19.53;11.23;;;1.70;90.10;;;;;;5031781;28;20339;-81
2021/01/13 12:53:57;;;;;;;19.93;11.50;;;1.90;90.10;;;;;;5036032;28;20256;-81
2021/01/13 12:56:28;;;;;;;15.83;10.40;;;1.70;90.30;;;;;;5023204;28;21152;-79
2021/01/13 12:58:57;;;;;;;13.63;10.83;;;1.70;90.10;;;;;;5020947;28;20199;-80
2021/01/13 13:01:26;;;;;;;14.90;10.60;;;1.80;90.20;;;;;;5029108;28;20502;-83
2021/01/13 13:03:55;;;;;;;17.43;10.73;;;1.70;90.20;;;;;;5037450;28;20233;-81
2021/01/13 13:06:24;;;;;;;17.90;11.90;;;1.70;90.20;;;;;;5028595;28;20205;-79
2021/01/13 13:08:53;;;;;;;17.93;11.50;;;1.60;90.20;;;;;;5039089;28;20191;-80
2021/01/13 13:11:21;;;;;;;21.63;12.73;;;1.60;90.40;;;;;;5037427;28;20505;-81
2021/01/13 13:13:49;;;;;;;17.77;10.93;;;1.60;90.40;;;;;;5048683;28;20744;-80
2021/01/13 13:16:20;;;;;;;18.60;11.60;;;1.60;90.50;;;;;;5046932;28;20261;-81